Time;durP1;ratioP1;P1;durP2;ratioP2;P2;SDS_P1;SDS_P2;PMS_P1;PMS_P2;Temp;Humidity;BMP_temperature;BMP_pressure;BME280_temperature;BME280_humidity;BME280_pressure;Samples;Min_cycle;Max_cycle;Signal;HPM_P1;HPM_P2
2022/09/21 00:01:07;;;;;;;9.77;6.73;;;;;;;;;;5087364;28;20667;-75
2022/09/21 00:03:36;;;;;;;8.43;5.87;;;;;;;;;;5075424;28;20232;-75
2022/09/21 00:06:05;;;;;;;7.00;6.30;;;;;;;;;;5074846;28;20225;-75
2022/09/21 00:08:33;;;;;;;7.33;5.70;;;;;;;;;;5075542;28;20298;-75
2022/09/21 00:11:04;;;;;;;6.60;5.97;;;;;;;;;;5095509;28;20213;-75
2022/09/21 00:13:33;;;;;;;7.60;6.00;;;;;;;;;;5092804;28;20226;-75
2022/09/21 00:16:05;;;;;;;7.83;6.37;;;;;;;;;;5075142;28;20256;-75
2022/09/21 00:18:34;;;;;;;9.27;6.17;;;;;;;;;;5092349;28;20233;-75
2022/09/21 00:21:03;;;;;;;8.50;6.27;;;;;;;;;;5075315;28;20230;-75
2022/09/21 00:23:31;;;;;;;7.10;5.70;;;;;;;;;;5087396;28;21128;-75
2022/09/21 00:26:05;;;;;;;11.90;6.00;;;;;;;;;;5075106;28;20245;-75
2022/09/21 00:28:33;;;;;;;9.07;6.57;;;;;;;;;;5078051;28;20286;-75
2022/09/21 00:31:03;;;;;;;7.63;6.40;;;;;;;;;;5077617;28;20263;-75
2022/09/21 00:33:32;;;;;;;10.97;7.00;;;;;;;;;;5080531;28;20309;-75
2022/09/21 00:36:04;;;;;;;7.93;7.00;;;;;;;;;;5088661;28;20298;-75
2022/09/21 00:38:32;;;;;;;6.80;6.10;;;;;;;;;;5076422;28;20226;-75
2022/09/21 00:41:01;;;;;;;6.50;5.90;;;;;;;;;;5076680;28;20705;-76
2022/09/21 00:43:29;;;;;;;8.83;6.40;;;;;;;;;;5077672;28;20272;-75
2022/09/21 00:46:01;;;;;;;6.57;5.97;;;;;;;;;;5075376;28;20233;-75
2022/09/21 00:48:30;;;;;;;7.50;6.13;;;;;;;;;;5091584;28;20200;-75
2022/09/21 00:51:01;;;;;;;6.47;5.60;;;;;;;;;;5075748;28;20629;-76
2022/09/21 00:53:30;;;;;;;6.53;5.30;;;;;;;;;;5105728;28;20771;-75
2022/09/21 00:56:00;;;;;;;9.50;5.73;;;;;;;;;;5095115;28;20316;-75
2022/09/21 00:58:30;;;;;;;8.80;6.80;;;;;;;;;;5076517;28;20292;-76
2022/09/21 01:00:59;;;;;;;7.83;6.10;;;;;;;;;;5074802;28;20259;-75
2022/09/21 01:03:28;;;;;;;8.73;7.07;;;;;;;;;;5078870;28;20217;-75
2022/09/21 01:05:58;;;;;;;7.60;6.17;;;;;;;;;;5095464;28;20285;-75
2022/09/21 01:08:27;;;;;;;9.07;6.80;;;;;;;;;;5094103;28;20233;-75
2022/09/21 01:11:07;;;;;;;8.43;7.00;;;;;;;;;;5094852;28;20272;-75
2022/09/21 01:13:40;;;;;;;9.03;7.30;;;;;;;;;;5082126;28;20226;-75
2022/09/21 01:16:14;;;;;;;8.50;6.33;;;;;;;;;;5088280;28;20770;-75
2022/09/21 01:18:46;;;;;;;10.57;7.00;;;;;;;;;;5094102;28;20651;-75
2022/09/21 01:21:20;;;;;;;7.97;7.17;;;;;;;;;;5078939;28;20218;-75
2022/09/21 01:24:05;;;;;;;8.23;7.43;;;;;;;;;;5080450;28;20633;-75
2022/09/21 01:26:41;;;;;;;9.20;6.60;;;;;;;;;;5092896;28;20193;-75
2022/09/21 01:29:20;;;;;;;9.30;6.97;;;;;;;;;;5087749;28;20724;-75
2022/09/21 01:31:51;;;;;;;8.03;6.73;;;;;;;;;;5075987;28;20225;-75
2022/09/21 01:34:25;;;;;;;8.23;6.47;;;;;;;;;;5082488;28;20686;-75
2022/09/21 01:36:55;;;;;;;7.53;6.30;;;;;;;;;;5096043;28;20647;-75
2022/09/21 01:39:24;;;;;;;9.67;7.37;;;;;;;;;;5083098;28;20304;-75
2022/09/21 01:41:53;;;;;;;6.93;6.23;;;;;;;;;;5088541;28;20258;-76
2022/09/21 01:44:25;;;;;;;7.33;6.60;;;;;;;;;;5088597;28;20658;-75
2022/09/21 01:46:55;;;;;;;8.00;6.50;;;;;;;;;;5093217;28;20282;-76
2022/09/21 01:49:25;;;;;;;7.63;6.20;;;;;;;;;;5085412;28;20241;-75
2022/09/21 01:51:56;;;;;;;6.60;6.00;;;;;;;;;;5091637;28;20244;-76
2022/09/21 01:54:26;;;;;;;6.43;5.83;;;;;;;;;;5093753;28;20240;-76
2022/09/21 01:56:56;;;;;;;6.80;6.17;;;;;;;;;;5076657;28;20313;-75
2022/09/21 01:59:29;;;;;;;7.30;6.10;;;;;;;;;;5090996;28;20638;-75
2022/09/21 02:01:59;;;;;;;6.77;5.83;;;;;;;;;;5092598;28;20280;-75
2022/09/21 02:04:27;;;;;;;6.70;5.60;;;;;;;;;;5098597;28;20206;-76
2022/09/21 02:06:56;;;;;;;6.87;5.73;;;;;;;;;;5106126;28;20200;-75
2022/09/21 02:09:25;;;;;;;6.47;5.87;;;;;;;;;;5101646;28;20548;-75
2022/09/21 02:11:57;;;;;;;6.07;5.47;;;;;;;;;;5078056;28;20254;-75
2022/09/21 02:14:27;;;;;;;6.00;5.37;;;;;;;;;;5078590;28;20202;-75
2022/09/21 02:17:01;;;;;;;6.20;5.60;;;;;;;;;;5083606;28;20308;-75
2022/09/21 02:19:33;;;;;;;6.27;5.67;;;;;;;;;;5088993;28;20195;-75
2022/09/21 02:22:04;;;;;;;5.70;5.00;;;;;;;;;;5096241;28;20217;-75
2022/09/21 02:24:36;;;;;;;7.13;5.63;;;;;;;;;;5083018;28;20230;-75
2022/09/21 02:27:05;;;;;;;7.83;5.67;;;;;;;;;;5088996;28;20194;-75
2022/09/21 02:29:39;;;;;;;6.83;5.20;;;;;;;;;;5085544;28;20206;-75
2022/09/21 02:32:10;;;;;;;6.17;5.03;;;;;;;;;;5078025;28;20276;-76
2022/09/21 02:34:45;;;;;;;5.93;4.67;;;;;;;;;;5101173;28;20226;-75
2022/09/21 02:37:18;;;;;;;8.77;4.73;;;;;;;;;;5078302;28;20751;-75
2022/09/21 02:39:51;;;;;;;5.30;4.30;;;;;;;;;;5079994;28;20234;-75
2022/09/21 02:42:23;;;;;;;6.27;4.90;;;;;;;;;;5096696;28;20233;-75
2022/09/21 02:44:56;;;;;;;5.47;4.33;;;;;;;;;;5093189;28;20214;-76
2022/09/21 02:47:26;;;;;;;5.03;4.10;;;;;;;;;;5086984;28;20236;-75
2022/09/21 02:49:58;;;;;;;6.27;5.23;;;;;;;;;;5093562;28;20707;-76
2022/09/21 02:52:28;;;;;;;7.17;5.20;;;;;;;;;;5095844;28;20312;-75
2022/09/21 02:54:56;;;;;;;7.47;5.07;;;;;;;;;;5094085;28;20241;-76
2022/09/21 02:57:26;;;;;;;6.20;4.90;;;;;;;;;;5081124;28;20226;-75
2022/09/21 02:59:56;;;;;;;5.33;4.80;;;;;;;;;;5097389;28;20258;-75
2022/09/21 03:02:24;;;;;;;6.87;5.20;;;;;;;;;;5092544;28;20283;-75
2022/09/21 03:04:53;;;;;;;8.23;5.83;;;;;;;;;;5096611;28;20617;-76
2022/09/21 03:07:21;;;;;;;6.43;5.30;;;;;;;;;;5097313;28;20236;-75
2022/09/21 03:09:49;;;;;;;5.70;5.03;;;;;;;;;;5086086;28;20671;-75
2022/09/21 03:12:18;;;;;;;9.30;6.10;;;;;;;;;;5078049;28;20296;-75
2022/09/21 03:14:46;;;;;;;6.13;5.40;;;;;;;;;;5088078;28;20237;-75
2022/09/21 03:17:16;;;;;;;7.20;5.87;;;;;;;;;;5081276;28;20762;-75
2022/09/21 03:19:44;;;;;;;5.80;5.20;;;;;;;;;;5084643;28;20228;-75
2022/09/21 03:22:13;;;;;;;6.33;5.27;;;;;;;;;;5081328;28;20226;-75
2022/09/21 03:24:47;;;;;;;5.33;4.83;;;;;;;;;;5076881;28;20699;-75
2022/09/21 03:27:16;;;;;;;6.57;5.03;;;;;;;;;;5076655;28;20626;-75
2022/09/21 03:29:45;;;;;;;5.93;4.50;;;;;;;;;;5085172;28;20205;-76
2022/09/21 03:32:14;;;;;;;5.70;5.10;;;;;;;;;;5090913;28;20245;-76
2022/09/21 03:34:44;;;;;;;5.90;5.30;;;;;;;;;;5086281;28;20213;-75
2022/09/21 03:37:12;;;;;;;6.23;5.63;;;;;;;;;;5094332;28;20288;-76
2022/09/21 03:39:41;;;;;;;9.13;5.93;;;;;;;;;;5091099;28;20253;-75
2022/09/21 03:42:09;;;;;;;7.77;5.87;;;;;;;;;;5083569;28;20254;-75
2022/09/21 03:44:38;;;;;;;7.60;6.03;;;;;;;;;;5082879;28;20691;-75
2022/09/21 03:47:06;;;;;;;9.70;6.83;;;;;;;;;;5076437;28;20637;-75
2022/09/21 03:49:34;;;;;;;8.93;6.93;;;;;;;;;;5083615;28;20742;-75
2022/09/21 03:52:05;;;;;;;7.27;6.50;;;;;;;;;;5095163;28;20299;-75
2022/09/21 03:54:33;;;;;;;7.77;6.97;;;;;;;;;;5094435;28;20210;-76
2022/09/21 03:57:01;;;;;;;8.23;6.10;;;;;;;;;;5090667;28;20266;-76
2022/09/21 03:59:30;;;;;;;6.80;6.07;;;;;;;;;;5078195;28;20237;-76
2022/09/21 04:01:58;;;;;;;6.87;5.30;;;;;;;;;;5074561;28;20272;-77
2022/09/21 04:04:26;;;;;;;6.23;4.90;;;;;;;;;;5075986;28;20202;-76
2022/09/21 04:06:55;;;;;;;7.27;5.10;;;;;;;;;;5083325;28;20286;-76
2022/09/21 04:09:28;;;;;;;6.67;5.30;;;;;;;;;;5089504;28;20194;-76
2022/09/21 04:11:56;;;;;;;6.80;5.73;;;;;;;;;;5074718;28;20253;-76
2022/09/21 04:14:25;;;;;;;7.67;5.70;;;;;;;;;;5074153;28;20319;-76
2022/09/21 04:16:53;;;;;;;6.43;5.40;;;;;;;;;;5083696;28;20263;-76
2022/09/21 04:19:21;;;;;;;7.07;5.33;;;;;;;;;;5091649;28;20284;-76
2022/09/21 04:21:51;;;;;;;9.90;5.13;;;;;;;;;;5085130;28;20257;-76
2022/09/21 04:24:19;;;;;;;7.40;5.33;;;;;;;;;;5074530;28;20293;-76
2022/09/21 04:26:49;;;;;;;6.63;5.37;;;;;;;;;;5077061;28;20234;-76
2022/09/21 04:29:17;;;;;;;7.10;5.60;;;;;;;;;;5086474;28;20236;-76
2022/09/21 04:31:46;;;;;;;8.77;5.23;;;;;;;;;;5081068;28;20245;-76
2022/09/21 04:34:14;;;;;;;6.27;5.00;;;;;;;;;;5080278;28;20236;-77
2022/09/21 04:36:43;;;;;;;6.10;5.50;;;;;;;;;;5084801;28;20286;-76
2022/09/21 04:39:11;;;;;;;5.67;5.07;;;;;;;;;;5083375;28;20226;-77
2022/09/21 04:41:40;;;;;;;10.53;5.10;;;;;;;;;;5088966;28;20620;-77
2022/09/21 04:44:10;;;;;;;5.73;4.97;;;;;;;;;;5089990;28;20244;-77
2022/09/21 04:46:38;;;;;;;6.83;5.97;;;;;;;;;;5091843;28;20234;-76
2022/09/21 04:49:07;;;;;;;7.30;6.53;;;;;;;;;;5093331;28;20280;-76
2022/09/21 04:51:36;;;;;;;6.13;5.53;;;;;;;;;;5083168;28;20220;-76
2022/09/21 04:54:07;;;;;;;8.07;5.73;;;;;;;;;;5075632;28;20206;-76
2022/09/21 04:56:35;;;;;;;8.67;6.20;;;;;;;;;;5083355;28;20605;-76
2022/09/21 04:59:04;;;;;;;8.90;6.03;;;;;;;;;;5092765;28;20661;-76
2022/09/21 05:01:34;;;;;;;8.03;6.33;;;;;;;;;;5092054;28;20206;-77
2022/09/21 05:04:02;;;;;;;7.27;6.53;;;;;;;;;;5074150;28;20233;-76
2022/09/21 05:06:32;;;;;;;15.70;8.23;;;;;;;;;;5081934;28;20280;-76
2022/09/21 05:11:46;;;;;;;10.50;7.63;;;;;;;;;;5083230;28;20244;-76
2022/09/21 05:14:15;;;;;;;12.50;8.63;;;;;;;;;;5093655;28;20723;-76
2022/09/21 05:16:48;;;;;;;16.13;8.47;;;;;;;;;;5088768;28;20565;-76
2022/09/21 05:19:16;;;;;;;14.50;8.60;;;;;;;;;;5080846;28;20595;-76
2022/09/21 05:21:45;;;;;;;11.93;8.43;;;;;;;;;;5077728;28;20242;-76
2022/09/21 05:24:14;;;;;;;16.80;7.63;;;;;;;;;;5087619;28;20635;-76
2022/09/21 05:26:42;;;;;;;20.77;8.43;;;;;;;;;;5088295;28;20225;-76
2022/09/21 05:29:11;;;;;;;29.83;8.90;;;;;;;;;;5083621;28;20233;-77
2022/09/21 05:31:42;;;;;;;57.27;9.90;;;;;;;;;;5087254;28;20206;-76
2022/09/21 05:34:21;;;;;;;26.73;9.77;;;;;;;;;;5097783;28;20222;-76
2022/09/21 05:36:53;;;;;;;28.43;8.60;;;;;;;;;;5096511;28;20247;-76
2022/09/21 05:39:22;;;;;;;13.77;7.77;;;;;;;;;;5095841;28;20241;-76
2022/09/21 05:41:50;;;;;;;14.20;7.73;;;;;;;;;;5080626;28;20222;-76
2022/09/21 05:44:20;;;;;;;13.43;8.27;;;;;;;;;;5084783;28;20668;-77
2022/09/21 05:46:50;;;;;;;11.27;7.50;;;;;;;;;;5087649;28;20259;-77
2022/09/21 05:49:29;;;;;;;10.90;7.40;;;;;;;;;;5097594;28;20205;-76
2022/09/21 05:52:01;;;;;;;10.97;7.93;;;;;;;;;;5095080;28;20271;-76
2022/09/21 05:54:33;;;;;;;10.30;8.10;;;;;;;;;;5097647;28;20190;-77
2022/09/21 05:57:04;;;;;;;11.60;7.77;;;;;;;;;;5094087;28;20245;-76
2022/09/21 05:59:40;;;;;;;11.87;7.50;;;;;;;;;;5097054;28;20257;-76
2022/09/21 06:02:13;;;;;;;10.77;7.90;;;;;;;;;;5097544;28;20225;-76
2022/09/21 06:04:43;;;;;;;10.47;7.90;;;;;;;;;;5096816;28;20215;-76
2022/09/21 06:07:12;;;;;;;14.27;8.17;;;;;;;;;;5091286;28;20230;-77
2022/09/21 06:09:40;;;;;;;13.93;9.00;;;;;;;;;;5089319;28;20249;-76
2022/09/21 06:12:11;;;;;;;14.30;9.13;;;;;;;;;;5076523;28;20641;-76
2022/09/21 06:14:39;;;;;;;12.57;8.90;;;;;;;;;;5085958;28;20260;-76
2022/09/21 06:17:07;;;;;;;12.23;9.10;;;;;;;;;;5087686;28;20202;-77
2022/09/21 06:19:36;;;;;;;12.20;9.00;;;;;;;;;;5096477;28;20253;-76
2022/09/21 06:22:06;;;;;;;13.30;9.10;;;;;;;;;;5095196;28;20226;-76
2022/09/21 06:24:35;;;;;;;14.43;9.90;;;;;;;;;;5076631;28;20246;-76
2022/09/21 06:27:04;;;;;;;13.63;9.60;;;;;;;;;;5090023;28;20222;-76
2022/09/21 06:29:32;;;;;;;14.27;10.27;;;;;;;;;;5087915;28;20676;-75
2022/09/21 06:32:02;;;;;;;12.50;10.83;;;;;;;;;;5094396;28;20267;-76
2022/09/21 06:34:30;;;;;;;12.50;10.03;;;;;;;;;;5096982;28;20213;-75
2022/09/21 06:36:59;;;;;;;15.10;10.20;;;;;;;;;;5096695;28;20333;-76
2022/09/21 06:39:29;;;;;;;15.77;11.33;;;;;;;;;;5095896;28;20833;-76
2022/09/21 06:41:58;;;;;;;16.03;11.70;;;;;;;;;;5096079;28;20304;-76
2022/09/21 06:44:28;;;;;;;18.50;13.40;;;;;;;;;;5084341;28;20245;-76
2022/09/21 06:46:57;;;;;;;18.43;13.13;;;;;;;;;;5080907;28;20570;-76
2022/09/21 06:49:27;;;;;;;16.57;13.23;;;;;;;;;;5096295;28;20285;-76
2022/09/21 06:51:56;;;;;;;14.00;12.50;;;;;;;;;;5080852;28;20227;-76
2022/09/21 06:54:24;;;;;;;13.03;10.93;;;;;;;;;;5076554;28;20325;-76
2022/09/21 06:56:54;;;;;;;13.57;11.13;;;;;;;;;;5075908;28;20210;-76
2022/09/21 06:59:27;;;;;;;12.40;10.00;;;;;;;;;;5093157;28;20741;-76
2022/09/21 07:01:57;;;;;;;11.00;9.90;;;;;;;;;;5096206;28;20650;-76
2022/09/21 07:04:28;;;;;;;12.63;9.47;;;;;;;;;;5094659;28;20221;-77
2022/09/21 07:06:56;;;;;;;9.80;8.87;;;;;;;;;;5095481;28;20230;-76
2022/09/21 07:09:25;;;;;;;11.43;8.43;;;;;;;;;;5095915;28;20197;-76
2022/09/21 07:12:15;;;;;;;9.87;8.87;;;;;;;;;;5095517;28;20218;-76
2022/09/21 07:14:44;;;;;;;11.37;9.13;;;;;;;;;;5096046;28;20639;-76
2022/09/21 07:17:13;;;;;;;11.10;9.00;;;;;;;;;;5092868;28;20201;-76
2022/09/21 07:19:43;;;;;;;13.47;10.03;;;;;;;;;;5081753;28;20284;-77
2022/09/21 07:22:11;;;;;;;10.40;9.30;;;;;;;;;;5090348;28;20649;-77
2022/09/21 07:24:40;;;;;;;11.30;9.97;;;;;;;;;;5095099;28;20706;-77
2022/09/21 07:27:08;;;;;;;12.30;10.30;;;;;;;;;;5094917;28;20233;-76
2022/09/21 07:29:38;;;;;;;11.53;10.43;;;;;;;;;;5095281;28;20202;-76
2022/09/21 07:32:06;;;;;;;14.03;10.67;;;;;;;;;;5095594;28;20257;-76
2022/09/21 07:34:36;;;;;;;13.73;11.07;;;;;;;;;;5089570;28;20236;-77
2022/09/21 07:37:05;;;;;;;15.57;11.00;;;;;;;;;;5088745;28;20233;-77
2022/09/21 07:39:34;;;;;;;15.73;11.80;;;;;;;;;;5095498;28;20249;-76
2022/09/21 07:42:02;;;;;;;12.63;11.33;;;;;;;;;;5094891;28;20733;-76
2022/09/21 07:44:31;;;;;;;13.33;11.53;;;;;;;;;;5094922;28;20237;-76
2022/09/21 07:47:02;;;;;;;15.20;11.90;;;;;;;;;;5085869;28;20206;-77
2022/09/21 07:49:30;;;;;;;13.17;11.83;;;;;;;;;;5081305;28;20572;-76
2022/09/21 07:51:59;;;;;;;13.77;12.27;;;;;;;;;;5091274;28;20714;-76
2022/09/21 07:54:33;;;;;;;15.33;12.33;;;;;;;;;;5081904;28;20207;-76
2022/09/21 07:59:48;;;;;;;13.73;12.17;;;;;;;;;;5084841;28;20286;-77
2022/09/21 08:02:18;;;;;;;16.67;11.93;;;;;;;;;;5092532;28;20660;-76
2022/09/21 08:04:46;;;;;;;16.70;12.47;;;;;;;;;;5094111;28;20228;-76
2022/09/21 08:07:14;;;;;;;16.50;12.30;;;;;;;;;;5077540;28;20679;-76
2022/09/21 08:09:44;;;;;;;14.40;12.97;;;;;;;;;;5091997;28;20640;-76
2022/09/21 08:12:12;;;;;;;17.60;12.60;;;;;;;;;;5075882;28;20265;-76
2022/09/21 08:14:41;;;;;;;14.97;11.67;;;;;;;;;;5083371;28;20197;-76
2022/09/21 08:17:10;;;;;;;14.53;11.50;;;;;;;;;;5087947;28;20230;-77
2022/09/21 08:19:39;;;;;;;14.87;12.20;;;;;;;;;;5079474;28;20206;-76
2022/09/21 08:22:08;;;;;;;14.43;10.97;;;;;;;;;;5087456;28;20338;-76
2022/09/21 08:24:37;;;;;;;13.87;10.57;;;;;;;;;;5094218;28;20201;-76
2022/09/21 08:27:07;;;;;;;12.57;10.07;;;;;;;;;;5111292;28;20716;-76
2022/09/21 08:29:38;;;;;;;13.43;9.17;;;;;;;;;;5091409;28;20198;-77
2022/09/21 08:32:06;;;;;;;13.23;9.40;;;;;;;;;;5091973;28;20297;-76
2022/09/21 08:34:35;;;;;;;14.73;8.33;;;;;;;;;;5091580;28;20281;-77
2022/09/21 08:37:05;;;;;;;15.33;8.37;;;;;;;;;;5092215;28;20229;-76
2022/09/21 08:39:33;;;;;;;10.70;7.90;;;;;;;;;;5084287;28;20309;-76
2022/09/21 08:42:10;;;;;;;12.63;8.20;;;;;;;;;;5071695;28;20260;-77
2022/09/21 08:44:40;;;;;;;9.80;7.83;;;;;;;;;;5087325;28;20719;-76
2022/09/21 08:47:12;;;;;;;8.20;7.10;;;;;;;;;;5091893;28;20608;-76
2022/09/21 08:49:42;;;;;;;8.03;6.67;;;;;;;;;;5092505;28;20222;-76
2022/09/21 08:52:15;;;;;;;9.17;7.00;;;;;;;;;;5091961;28;20230;-77
2022/09/21 08:54:48;;;;;;;8.90;7.10;;;;;;;;;;5089865;28;20251;-76
2022/09/21 08:57:16;;;;;;;9.27;6.90;;;;;;;;;;5082328;28;20222;-77
2022/09/21 08:59:46;;;;;;;10.37;6.67;;;;;;;;;;5093158;28;20706;-76
2022/09/21 09:02:30;;;;;;;10.93;6.37;;;;;;;;;;5084711;28;20283;-76
2022/09/21 09:05:01;;;;;;;8.20;4.43;;;;;;;;;;5072412;28;20202;-76
2022/09/21 09:07:41;;;;;;;10.97;4.17;;;;;;;;;;5087826;28;20250;-76
2022/09/21 09:10:18;;;;;;;8.57;4.07;;;;;;;;;;5093112;28;20224;-77
2022/09/21 09:12:51;;;;;;;5.60;3.50;;;;;;;;;;5092388;28;20270;-77
2022/09/21 09:15:27;;;;;;;7.17;3.63;;;;;;;;;;5076515;28;20239;-76
2022/09/21 09:17:56;;;;;;;8.30;4.40;;;;;;;;;;5082718;28;20235;-77
2022/09/21 09:20:30;;;;;;;6.07;4.07;;;;;;;;;;5085734;28;20304;-77
2022/09/21 09:23:04;;;;;;;6.32;4.47;;;;;;;;;;5087836;28;20226;-77
2022/09/21 09:25:36;;;;;;;7.03;4.28;;;;;;;;;;5087444;28;20205;-77
2022/09/21 09:28:14;;;;;;;8.25;3.60;;;;;;;;;;5092327;28;20241;-76
2022/09/21 09:30:42;;;;;;;7.07;2.60;;;;;;;;;;5092608;28;20221;-76
2022/09/21 09:33:14;;;;;;;7.82;2.80;;;;;;;;;;5089931;28;20297;-77
2022/09/21 09:35:46;;;;;;;5.07;2.17;;;;;;;;;;5078467;28;20194;-77
2022/09/21 09:38:24;;;;;;;7.88;2.70;;;;;;;;;;5083110;28;20687;-77
2022/09/21 09:41:05;;;;;;;7.53;2.30;;;;;;;;;;5091558;28;20749;-76
2022/09/21 09:43:39;;;;;;;4.97;2.40;;;;;;;;;;5078670;28;20581;-76
2022/09/21 09:46:12;;;;;;;6.18;2.17;;;;;;;;;;5091388;28;20710;-76
2022/09/21 09:48:49;;;;;;;5.05;2.20;;;;;;;;;;5103654;28;20203;-76
2022/09/21 09:51:22;;;;;;;4.57;2.70;;;;;;;;;;5103816;28;20197;-75
2022/09/21 09:53:52;;;;;;;7.68;2.67;;;;;;;;;;5085615;28;20205;-75
2022/09/21 09:56:20;;;;;;;5.93;2.13;;;;;;;;;;5091180;28;20245;-76
2022/09/21 09:58:51;;;;;;;5.28;2.00;;;;;;;;;;5089915;28;20752;-76
2022/09/21 10:01:42;;;;;;;7.75;2.38;;;;;;;;;;5089983;28;20312;-76
2022/09/21 10:04:11;;;;;;;6.97;2.47;;;;;;;;;;5100811;28;20198;-76
2022/09/21 10:06:40;;;;;;;4.07;2.45;;;;;;;;;;5086798;28;20210;-75
2022/09/21 10:09:28;;;;;;;8.18;2.30;;;;;;;;;;5072052;28;20252;-76
2022/09/21 10:12:00;;;;;;;4.60;2.30;;;;;;;;;;5080521;28;20301;-75
2022/09/21 10:14:32;;;;;;;5.97;2.67;;;;;;;;;;5092532;28;20612;-75
2022/09/21 10:17:03;;;;;;;5.25;1.98;;;;;;;;;;5083233;28;20203;-75
2022/09/21 10:19:31;;;;;;;4.82;2.10;;;;;;;;;;5096455;28;20186;-75
2022/09/21 10:22:00;;;;;;;4.28;2.08;;;;;;;;;;5096096;28;20820;-75
2022/09/21 10:24:32;;;;;;;4.03;1.80;;;;;;;;;;5096970;28;20671;-75
2022/09/21 10:27:09;;;;;;;5.65;2.47;;;;;;;;;;5096153;28;20659;-75
2022/09/21 10:29:41;;;;;;;6.70;2.42;;;;;;;;;;5096099;28;20285;-75
2022/09/21 10:32:20;;;;;;;7.18;2.47;;;;;;;;;;5095483;28;20263;-75
2022/09/21 10:35:03;;;;;;;5.05;2.25;;;;;;;;;;5095912;28;20213;-75
2022/09/21 10:37:33;;;;;;;6.50;1.90;;;;;;;;;;5096019;28;20218;-75
2022/09/21 10:40:02;;;;;;;6.18;1.90;;;;;;;;;;5095817;28;20202;-75
2022/09/21 10:42:34;;;;;;;3.92;2.00;;;;;;;;;;5095830;28;20226;-76
2022/09/21 10:45:11;;;;;;;4.72;1.95;;;;;;;;;;5095256;28;20223;-75
2022/09/21 10:47:41;;;;;;;5.13;1.95;;;;;;;;;;5096126;28;20237;-75
2022/09/21 10:50:22;;;;;;;2.45;1.77;;;;;;;;;;5096129;28;20236;-75
2022/09/21 10:52:56;;;;;;;6.50;2.13;;;;;;;;;;5095495;28;20312;-75
2022/09/21 10:55:26;;;;;;;6.85;2.03;;;;;;;;;;5095204;28;20241;-75
2022/09/21 10:57:57;;;;;;;8.77;2.72;;;;;;;;;;5095186;28;20217;-75
2022/09/21 11:00:35;;;;;;;10.27;2.75;;;;;;;;;;5092957;28;20249;-74
2022/09/21 11:03:07;;;;;;;7.28;2.80;;;;;;;;;;5094729;28;20252;-74
2022/09/21 11:05:37;;;;;;;4.43;2.65;;;;;;;;;;5087116;28;20199;-74
2022/09/21 11:08:07;;;;;;;8.60;2.50;;;;;;;;;;5095913;28;20213;-75
2022/09/21 11:10:39;;;;;;;4.15;2.05;;;;;;;;;;5094648;28;20222;-75
2022/09/21 11:13:21;;;;;;;6.90;2.20;;;;;;;;;;5086367;28;20249;-75
2022/09/21 11:15:52;;;;;;;4.97;2.33;;;;;;;;;;5089877;28;20632;-74
2022/09/21 11:18:23;;;;;;;7.70;2.53;;;;;;;;;;5094158;28;20198;-75
2022/09/21 11:20:55;;;;;;;8.10;2.20;;;;;;;;;;5081885;28;20225;-75
2022/09/21 11:23:39;;;;;;;6.47;2.03;;;;;;;;;;5074928;28;20659;-75
2022/09/21 11:26:14;;;;;;;6.50;2.13;;;;;;;;;;5074661;28;20234;-76
2022/09/21 11:28:48;;;;;;;5.97;1.95;;;;;;;;;;5089608;28;20570;-75
2022/09/21 11:31:29;;;;;;;4.07;2.22;;;;;;;;;;5093863;28;20284;-75
2022/09/21 11:34:05;;;;;;;4.97;1.90;;;;;;;;;;5092322;28;20264;-76
2022/09/21 11:36:40;;;;;;;7.05;1.98;;;;;;;;;;5088769;28;20236;-75
2022/09/21 11:39:12;;;;;;;5.93;1.80;;;;;;;;;;5092800;28;20308;-74
2022/09/21 11:41:52;;;;;;;5.68;2.03;;;;;;;;;;5088408;28;20303;-76
2022/09/21 11:44:29;;;;;;;5.47;1.73;;;;;;;;;;5074063;28;20245;-76
2022/09/21 11:47:04;;;;;;;4.43;1.60;;;;;;;;;;5077462;28;20285;-76
2022/09/21 11:49:42;;;;;;;4.70;1.90;;;;;;;;;;5072454;28;20214;-74
2022/09/21 11:52:20;;;;;;;5.53;1.83;;;;;;;;;;5087011;28;20308;-75
2022/09/21 11:54:59;;;;;;;4.22;1.50;;;;;;;;;;5091393;28;20280;-75
2022/09/21 11:57:30;;;;;;;4.53;1.58;;;;;;;;;;5089188;28;20634;-75
2022/09/21 12:00:08;;;;;;;4.68;1.40;;;;;;;;;;5089519;28;20248;-75
2022/09/21 12:02:50;;;;;;;5.45;1.63;;;;;;;;;;5091264;28;20261;-74
2022/09/21 12:05:23;;;;;;;3.55;1.55;;;;;;;;;;5072070;28;20195;-75
2022/09/21 12:08:00;;;;;;;2.13;1.48;;;;;;;;;;5084715;28;20285;-75
2022/09/21 12:10:39;;;;;;;3.97;1.75;;;;;;;;;;5092344;28;20604;-75
2022/09/21 12:13:11;;;;;;;7.13;1.70;;;;;;;;;;5092958;28;20245;-75
2022/09/21 12:15:43;;;;;;;6.60;1.60;;;;;;;;;;5091729;28;20233;-76
2022/09/21 12:18:13;;;;;;;6.07;1.70;;;;;;;;;;5097198;28;20237;-74
2022/09/21 12:20:45;;;;;;;3.53;1.48;;;;;;;;;;5091927;28;20252;-74
2022/09/21 12:23:18;;;;;;;3.47;1.63;;;;;;;;;;5081591;28;20267;-75
2022/09/21 12:25:48;;;;;;;5.25;1.58;;;;;;;;;;5083600;28;20213;-75
2022/09/21 12:28:19;;;;;;;3.63;1.35;;;;;;;;;;5083851;28;20644;-76
2022/09/21 12:30:51;;;;;;;5.28;1.70;;;;;;;;;;5078660;28;20285;-76
2022/09/21 12:33:24;;;;;;;4.20;1.40;;;;;;;;;;5084151;28;20230;-76
2022/09/21 12:35:57;;;;;;;5.57;1.70;;;;;;;;;;5078516;28;20203;-75
2022/09/21 12:38:29;;;;;;;5.30;1.60;;;;;;;;;;5092446;28;20201;-75
2022/09/21 12:41:04;;;;;;;2.67;1.25;;;;;;;;;;5076807;28;20206;-75
2022/09/21 12:43:35;;;;;;;5.68;1.65;;;;;;;;;;5091869;28;20301;-76
2022/09/21 12:46:07;;;;;;;3.90;1.23;;;;;;;;;;5086570;28;20277;-76
2022/09/21 12:48:37;;;;;;;2.95;1.30;;;;;;;;;;5092273;28;20259;-75
2022/09/21 12:51:11;;;;;;;2.65;1.30;;;;;;;;;;5091837;28;20198;-75
2022/09/21 12:53:42;;;;;;;3.30;1.38;;;;;;;;;;5085099;28;20249;-75
2022/09/21 12:56:21;;;;;;;3.60;1.50;;;;;;;;;;5072793;28;20214;-75
2022/09/21 12:58:57;;;;;;;4.93;1.45;;;;;;;;;;5082053;28;20197;-75
2022/09/21 13:01:31;;;;;;;4.38;1.50;;;;;;;;;;5090639;28;20201;-75
2022/09/21 13:04:27;;;;;;;5.90;1.52;;;;;;;;;;5074922;28;20229;-75
2022/09/21 13:07:07;;;;;;;3.10;1.20;;;;;;;;;;5050028;28;20288;-75
2022/09/21 13:09:40;;;;;;;2.45;1.10;;;;;;;;;;5087649;28;20237;-76
2022/09/21 13:12:10;;;;;;;3.88;1.10;;;;;;;;;;5092385;28;20742;-75
2022/09/21 13:14:44;;;;;;;2.80;1.10;;;;;;;;;;5080249;28;20213;-75
2022/09/21 13:17:21;;;;;;;2.85;1.27;;;;;;;;;;5081974;28;20240;-75
2022/09/21 13:19:58;;;;;;;4.95;1.35;;;;;;;;;;5084103;28;20234;-75
2022/09/21 13:22:27;;;;;;;2.83;1.17;;;;;;;;;;5083451;28;20231;-75
2022/09/21 13:25:00;;;;;;;5.70;1.20;;;;;;;;;;5081835;28;20233;-75
2022/09/21 13:27:43;;;;;;;4.43;0.98;;;;;;;;;;5085466;28;20656;-75
2022/09/21 13:30:30;;;;;;;2.60;0.90;;;;;;;;;;5090803;28;20209;-75
2022/09/21 13:33:01;;;;;;;2.22;0.95;;;;;;;;;;5090249;28;20820;-75
2022/09/21 13:35:48;;;;;;;3.47;1.23;;;;;;;;;;5088266;28;20263;-75
2022/09/21 13:38:24;;;;;;;3.25;1.10;;;;;;;;;;5083400;28;20663;-75
2022/09/21 13:40:58;;;;;;;2.95;1.15;;;;;;;;;;5087277;28;20194;-75
2022/09/21 13:43:56;;;;;;;3.63;1.08;;;;;;;;;;5091500;28;20222;-75
2022/09/21 13:46:50;;;;;;;2.67;1.30;;;;;;;;;;5091252;28;20239;-76
2022/09/21 13:49:22;;;;;;;3.30;1.23;;;;;;;;;;5084175;28;20260;-75
2022/09/21 13:51:52;;;;;;;2.88;1.17;;;;;;;;;;5092443;28;20240;-75
2022/09/21 13:54:22;;;;;;;2.92;1.08;;;;;;;;;;5091352;28;20221;-75
2022/09/21 13:56:59;;;;;;;2.47;1.00;;;;;;;;;;5085342;28;20282;-75
2022/09/21 13:59:28;;;;;;;2.92;1.05;;;;;;;;;;5086334;28;20194;-75
2022/09/21 14:01:56;;;;;;;2.83;1.08;;;;;;;;;;5094611;28;20301;-76
2022/09/21 14:04:28;;;;;;;3.42;1.00;;;;;;;;;;4735698;27;10000284;-75
2022/09/21 14:06:57;;;;;;;3.78;0.90;;;;;;;;;;5075763;28;20293;-75
2022/09/21 14:09:27;;;;;;;2.15;1.13;;;;;;;;;;5090079;28;20260;-76
2022/09/21 14:11:57;;;;;;;2.70;1.10;;;;;;;;;;5095806;28;20241;-76
2022/09/21 14:14:29;;;;;;;1.73;0.98;;;;;;;;;;5092871;28;20213;-75
2022/09/21 14:16:59;;;;;;;3.47;1.15;;;;;;;;;;5089456;28;20241;-76
2022/09/21 14:19:47;;;;;;;3.15;1.23;;;;;;;;;;5082100;28;20674;-75
2022/09/21 14:22:39;;;;;;;3.20;1.10;;;;;;;;;;5092805;28;20257;-75
2022/09/21 14:25:24;;;;;;;3.80;1.20;;;;;;;;;;5086682;28;20614;-75
2022/09/21 14:27:53;;;;;;;4.28;1.10;;;;;;;;;;5075336;28;20206;-75
2022/09/21 14:30:22;;;;;;;1.83;1.08;;;;;;;;;;5086653;28;20288;-75
2022/09/21 14:32:54;;;;;;;3.67;1.02;;;;;;;;;;5079395;28;20293;-76
2022/09/21 14:35:25;;;;;;;3.22;1.10;;;;;;;;;;5086859;28;20194;-75
2022/09/21 14:38:04;;;;;;;2.65;0.95;;;;;;;;;;5082898;28;20206;-75
2022/09/21 14:40:35;;;;;;;2.35;1.10;;;;;;;;;;5092199;28;20252;-75
2022/09/21 14:43:07;;;;;;;4.93;1.02;;;;;;;;;;5088346;28;20230;-75
2022/09/21 14:45:54;;;;;;;2.25;1.05;;;;;;;;;;5093761;28;20301;-75
2022/09/21 14:48:29;;;;;;;3.63;1.17;;;;;;;;;;5094698;28;20244;-75
2022/09/21 14:50:59;;;;;;;3.70;1.20;;;;;;;;;;5094763;28;20239;-76
2022/09/21 14:53:39;;;;;;;2.35;1.05;;;;;;;;;;5089202;28;20218;-75
2022/09/21 14:56:21;;;;;;;4.03;1.27;;;;;;;;;;5094546;28;20293;-74
2022/09/21 14:59:01;;;;;;;2.30;0.95;;;;;;;;;;5091699;28;20199;-75
2022/09/21 15:01:37;;;;;;;4.65;1.20;;;;;;;;;;5088841;28;20650;-75
2022/09/21 15:04:23;;;;;;;2.50;1.23;;;;;;;;;;5093395;28;20256;-75
2022/09/21 15:12:46;;;;;;;2.03;1.10;;;;;;;;;;5086323;28;20293;-75
2022/09/21 15:15:23;;;;;;;2.13;0.95;;;;;;;;;;5093773;28;20213;-75
2022/09/21 15:17:53;;;;;;;2.55;1.30;;;;;;;;;;5091514;28;20221;-75